Time;durP1;ratioP1;P1;durP2;ratioP2;P2;SDS_P1;SDS_P2;PMS_P1;PMS_P2;Temp;Humidity;BMP_temperature;BMP_pressure;BME280_temperature;BME280_humidity;BME280_pressure;Samples;Min_cycle;Max_cycle;Signal;HPM_P1;HPM_P2
2022/11/03 00:01:03;;;;;;;5.5;2.5;;;;;;;;;;;;;
2022/11/03 00:03:34;;;;;;;4;2.4;;;;;;;;;;;;;
2022/11/03 00:06:05;;;;;;;5.5;3.2;;;;;;;;;;;;;
2022/11/03 00:08:32;;;;;;;6.4;3.2;;;;;;;;;;;;;
2022/11/03 00:11:00;;;;;;;4.5;2.8;;;;;;;;;;;;;
2022/11/03 00:13:29;;;;;;;5.7;2.9;;;;;;;;;;;;;
2022/11/03 00:15:57;;;;;;;5.7;3.3;;;;;;;;;;;;;
2022/11/03 00:18:26;;;;;;;5.4;2.8;;;;;;;;;;;;;
2022/11/03 00:20:54;;;;;;;5;2.7;;;;;;;;;;;;;
2022/11/03 00:23:21;;;;;;;6.1;3.1;;;;;;;;;;;;;
2022/11/03 00:25:50;;;;;;;3.7;2.6;;;;;;;;;;;;;
2022/11/03 00:28:17;;;;;;;5.2;3;;;;;;;;;;;;;
2022/11/03 00:30:44;;;;;;;5.8;3;;;;;;;;;;;;;
2022/11/03 00:33:09;;;;;;;5.2;2.9;;;;;;;;;;;;;
2022/11/03 00:35:36;;;;;;;4.6;2.8;;;;;;;;;;;;;
2022/11/03 00:38:01;;;;;;;6.4;3.2;;;;;;;;;;;;;
2022/11/03 00:40:30;;;;;;;5.5;2.6;;;;;;;;;;;;;
2022/11/03 00:42:57;;;;;;;5.2;3.1;;;;;;;;;;;;;
2022/11/03 00:45:27;;;;;;;4;2.8;;;;;;;;;;;;;
2022/11/03 00:50:18;;;;;;;5.5;2.7;;;;;;;;;;;;;
2022/11/03 00:52:44;;;;;;;6.4;2.6;;;;;;;;;;;;;
2022/11/03 00:55:09;;;;;;;3.8;2.6;;;;;;;;;;;;;
2022/11/03 00:57:34;;;;;;;6.2;2.7;;;;;;;;;;;;;
2022/11/03 00:59:59;;;;;;;4.6;2.8;;;;;;;;;;;;;
2022/11/03 01:02:26;;;;;;;4.8;2.6;;;;;;;;;;;;;
2022/11/03 01:07:16;;;;;;;4.7;2.7;;;;;;;;;;;;;
2022/11/03 01:09:42;;;;;;;4.8;2.7;;;;;;;;;;;;;
2022/11/03 01:12:06;;;;;;;7.1;2.8;;;;;;;;;;;;;
2022/11/03 01:14:31;;;;;;;6.8;3.2;;;;;;;;;;;;;
2022/11/03 01:17:00;;;;;;;5.6;2.8;;;;;;;;;;;;;
2022/11/03 01:19:26;;;;;;;4.2;2.6;;;;;;;;;;;;;
2022/11/03 01:21:51;;;;;;;5.1;2.6;;;;;;;;;;;;;
2022/11/03 01:24:21;;;;;;;6.9;2.8;;;;;;;;;;;;;
2022/11/03 01:26:48;;;;;;;3.5;2.3;;;;;;;;;;;;;
2022/11/03 01:29:13;;;;;;;4.5;2.8;;;;;;;;;;;;;
2022/11/03 01:31:41;;;;;;;5.4;2.9;;;;;;;;;;;;;
2022/11/03 01:34:06;;;;;;;4.8;2.6;;;;;;;;;;;;;
2022/11/03 01:36:31;;;;;;;5.8;2.8;;;;;;;;;;;;;
2022/11/03 01:38:56;;;;;;;3.6;2.3;;;;;;;;;;;;;
2022/11/03 01:41:22;;;;;;;5.1;2.7;;;;;;;;;;;;;
2022/11/03 01:43:47;;;;;;;5.8;2.2;;;;;;;;;;;;;
2022/11/03 01:46:13;;;;;;;4.9;3.1;;;;;;;;;;;;;
2022/11/03 01:48:38;;;;;;;6.1;2.6;;;;;;;;;;;;;
2022/11/03 01:51:03;;;;;;;4.5;2.7;;;;;;;;;;;;;
2022/11/03 01:53:28;;;;;;;3.7;2.6;;;;;;;;;;;;;
2022/11/03 01:55:54;;;;;;;6.1;3.2;;;;;;;;;;;;;
2022/11/03 01:58:19;;;;;;;5.5;2.6;;;;;;;;;;;;;
2022/11/03 02:00:46;;;;;;;5.2;2.5;;;;;;;;;;;;;
2022/11/03 02:03:12;;;;;;;6.2;2.5;;;;;;;;;;;;;
2022/11/03 02:05:37;;;;;;;3.8;2.6;;;;;;;;;;;;;
2022/11/03 02:08:02;;;;;;;4.2;2.5;;;;;;;;;;;;;
2022/11/03 02:10:28;;;;;;;4.9;2.7;;;;;;;;;;;;;
2022/11/03 02:12:54;;;;;;;10.2;3;;;;;;;;;;;;;
2022/11/03 02:15:21;;;;;;;6.2;3;;;;;;;;;;;;;
2022/11/03 02:17:46;;;;;;;8.4;2.7;;;;;;;;;;;;;
2022/11/03 02:20:13;;;;;;;3.7;2.8;;;;;;;;;;;;;
2022/11/03 02:22:38;;;;;;;6.1;2.9;;;;;;;;;;;;;
2022/11/03 02:25:04;;;;;;;4.5;2.9;;;;;;;;;;;;;
2022/11/03 02:27:28;;;;;;;5;2.8;;;;;;;;;;;;;
2022/11/03 02:29:54;;;;;;;5.5;2.8;;;;;;;;;;;;;
2022/11/03 02:32:19;;;;;;;6.8;3.2;;;;;;;;;;;;;
2022/11/03 02:34:44;;;;;;;6;3.1;;;;;;;;;;;;;
2022/11/03 02:37:09;;;;;;;6.3;3.5;;;;;;;;;;;;;
2022/11/03 02:39:34;;;;;;;7;3;;;;;;;;;;;;;
2022/11/03 02:42:01;;;;;;;6.3;3.3;;;;;;;;;;;;;
2022/11/03 02:44:26;;;;;;;7.5;3.1;;;;;;;;;;;;;
2022/11/03 02:46:51;;;;;;;5.8;3.1;;;;;;;;;;;;;
2022/11/03 02:49:16;;;;;;;5.4;2.7;;;;;;;;;;;;;
2022/11/03 02:51:42;;;;;;;4.9;2.6;;;;;;;;;;;;;
2022/11/03 02:54:07;;;;;;;4.6;2.6;;;;;;;;;;;;;
2022/11/03 02:56:34;;;;;;;8.7;3;;;;;;;;;;;;;
2022/11/03 02:58:59;;;;;;;5.2;2.8;;;;;;;;;;;;;
2022/11/03 03:01:26;;;;;;;6.2;2.5;;;;;;;;;;;;;
2022/11/03 03:03:51;;;;;;;7.1;3.1;;;;;;;;;;;;;
2022/11/03 03:06:18;;;;;;;4.8;3.1;;;;;;;;;;;;;
2022/11/03 03:08:42;;;;;;;7.5;3.5;;;;;;;;;;;;;
2022/11/03 03:11:11;;;;;;;6.4;3.7;;;;;;;;;;;;;
2022/11/03 03:13:36;;;;;;;7.2;3.3;;;;;;;;;;;;;
2022/11/03 03:16:04;;;;;;;7.1;3.1;;;;;;;;;;;;;
2022/11/03 03:18:29;;;;;;;6.3;3;;;;;;;;;;;;;
2022/11/03 03:20:55;;;;;;;5.2;3;;;;;;;;;;;;;
2022/11/03 03:23:20;;;;;;;6.6;3;;;;;;;;;;;;;
2022/11/03 03:25:45;;;;;;;5.1;2.9;;;;;;;;;;;;;
2022/11/03 03:28:10;;;;;;;4.3;2.6;;;;;;;;;;;;;
2022/11/03 03:30:35;;;;;;;3.9;2.7;;;;;;;;;;;;;
2022/11/03 03:33:01;;;;;;;4.1;3.1;;;;;;;;;;;;;
2022/11/03 03:35:26;;;;;;;6.7;3.1;;;;;;;;;;;;;
2022/11/03 03:37:52;;;;;;;5.1;3;;;;;;;;;;;;;
2022/11/03 03:40:19;;;;;;;5.9;3;;;;;;;;;;;;;
2022/11/03 03:42:44;;;;;;;6.1;3.1;;;;;;;;;;;;;
2022/11/03 03:45:10;;;;;;;4.7;3;;;;;;;;;;;;;
2022/11/03 03:47:35;;;;;;;4.8;3.1;;;;;;;;;;;;;
2022/11/03 03:50:00;;;;;;;4.9;2.9;;;;;;;;;;;;;
2022/11/03 03:52:25;;;;;;;5.1;3;;;;;;;;;;;;;
2022/11/03 03:54:51;;;;;;;4.6;2.9;;;;;;;;;;;;;
2022/11/03 03:57:16;;;;;;;4.7;2.8;;;;;;;;;;;;;
2022/11/03 03:59:42;;;;;;;6;3.1;;;;;;;;;;;;;
2022/11/03 04:02:35;;;;;;;5.4;2.9;;;;;;;6.55;95.5127;939.7233;;;;
2022/11/03 04:05:05;;;;;;;7;3.3;;;;;;;6.42;95.30176;939.6486;;;;
2022/11/03 04:07:48;;;;;;;7;3.2;;;;;;;6.39;95.33887;939.6474;;;;
2022/11/03 04:09:55;;;;;;;4;2.7;;;;;;;6.37;95.13379;939.5861;;;;
2022/11/03 04:22:38;;;;;;;5.6;3;;;;;;;6.09;96.11035;939.4342;;;;
2022/11/03 04:25:05;;;;;;;9.5;3.7;;;;;;;6;96.63086;939.4375;;;;
2022/11/03 04:27:30;;;;;;;6.6;3.4;;;;;;;6.01;97.11914;939.322;;;;
2022/11/03 04:29:57;;;;;;;7.8;3.4;;;;;;;6.13;96.7041;939.4185;;;;
2022/11/03 04:32:22;;;;;;;5.4;3.1;;;;;;;6.09;96.76465;939.4222;;;;
2022/11/03 04:34:50;;;;;;;6.7;3.9;;;;;;;6.23;96.18652;939.4501;;;;
2022/11/03 04:37:15;;;;;;;6.7;3.5;;;;;;;6.23;95.51758;939.4066;;;;
2022/11/03 04:39:40;;;;;;;6.5;3.8;;;;;;;6.2;95.47754;939.3652;;;;
2022/11/03 04:42:05;;;;;;;4.7;3.4;;;;;;;5.88;97.16699;939.3231;;;;
2022/11/03 04:44:34;;;;;;;6.9;4;;;;;;;5.86;98.28125;939.2475;;;;
2022/11/03 04:47:00;;;;;;;5.2;3.7;;;;;;;5.99;97.90527;939.2523;;;;
2022/11/03 04:49:25;;;;;;;5.6;3.9;;;;;;;6.09;97.62305;939.2925;;;;
2022/11/03 04:51:56;;;;;;;7.4;4;;;;;;;6.06;98.64258;939.1494;;;;
2022/11/03 04:54:21;;;;;;;5.5;3.5;;;;;;;6.04;99.56738;939.1237;;;;
2022/11/03 04:56:49;;;;;;;7.2;3.9;;;;;;;6.04;99.11328;939.1465;;;;
2022/11/03 04:59:14;;;;;;;5.8;3.5;;;;;;;6.13;98.07227;939.0162;;;;
2022/11/03 05:01:45;;;;;;;4.8;3.4;;;;;;;5.93;97.54102;939.1622;;;;
2022/11/03 05:04:10;;;;;;;5.5;4;;;;;;;5.85;97.60156;939.0736;;;;
2022/11/03 05:06:38;;;;;;;6.6;3.9;;;;;;;5.64;97.97168;939.0804;;;;
2022/11/03 05:09:04;;;;;;;6.2;3.6;;;;;;;5.46;98.68848;939.0664;;;;
2022/11/03 05:11:29;;;;;;;5.5;3.7;;;;;;;5.51;99.28516;938.9352;;;;
2022/11/03 05:13:54;;;;;;;7.3;3.9;;;;;;;5.5;99.55469;938.9048;;;;
2022/11/03 05:16:21;;;;;;;6.4;4;;;;;;;5.6;99.47559;938.9543;;;;
2022/11/03 05:18:49;;;;;;;11.1;5.1;;;;;;;5.6;100;938.892;;;;
2022/11/03 05:21:14;;;;;;;14.4;6.2;;;;;;;5.64;100;938.8507;;;;
2022/11/03 05:23:41;;;;;;;11.4;6.2;;;;;;;5.68;99.96875;938.8029;;;;
2022/11/03 05:26:06;;;;;;;12;5.5;;;;;;;5.75;99.90723;938.7394;;;;
2022/11/03 05:28:36;;;;;;;11.1;5.1;;;;;;;5.94;98.49219;938.6913;;;;
2022/11/03 05:31:01;;;;;;;9.8;5.1;;;;;;;6.02;97.31445;938.645;;;;
2022/11/03 05:33:30;;;;;;;12.1;5.4;;;;;;;6.16;95.9668;938.678;;;;
2022/11/03 05:36:02;;;;;;;10.6;5.8;;;;;;;6.06;96.0332;938.6024;;;;
2022/11/03 05:38:26;;;;;;;9.2;5.7;;;;;;;6;96.08887;938.5825;;;;
2022/11/03 05:40:58;;;;;;;9.1;5.4;;;;;;;6.01;95.87793;938.5736;;;;
2022/11/03 05:43:23;;;;;;;10.6;6.1;;;;;;;5.76;97.04102;938.5627;;;;
2022/11/03 05:45:54;;;;;;;6.2;4.2;;;;;;;5.64;98.61523;938.613;;;;
2022/11/03 05:48:22;;;;;;;9;4.5;;;;;;;5.6;99.4082;938.4947;;;;
2022/11/03 05:50:47;;;;;;;7.1;4.1;;;;;;;5.71;99.05859;938.4908;;;;
2022/11/03 05:53:13;;;;;;;6.9;4.1;;;;;;;5.7;98.84375;938.5823;;;;
2022/11/03 05:55:47;;;;;;;6.8;3.4;;;;;;;5.68;98.57813;938.5319;;;;
2022/11/03 05:58:12;;;;;;;4.3;3.2;;;;;;;5.76;98.77734;938.4978;;;;
2022/11/03 06:00:37;;;;;;;5.8;3.3;;;;;;;5.79;99.92676;938.4419;;;;
2022/11/03 06:03:06;;;;;;;4.8;3.1;;;;;;;6.02;99.11133;938.4078;;;;
2022/11/03 06:05:32;;;;;;;5.6;3.4;;;;;;;6.1;97.89648;938.4201;;;;
2022/11/03 06:08:03;;;;;;;4.1;3.3;;;;;;;6.17;96.68066;938.475;;;;
2022/11/03 06:10:28;;;;;;;6.2;3.6;;;;;;;6.21;96.32715;938.5048;;;;
2022/11/03 06:12:54;;;;;;;5.5;4;;;;;;;6.17;96.13867;938.5042;;;;
2022/11/03 06:15:19;;;;;;;7.1;4.1;;;;;;;6.01;96.6875;938.4901;;;;
2022/11/03 06:17:44;;;;;;;6.3;3.4;;;;;;;5.96;97.28711;938.4509;;;;
2022/11/03 06:20:13;;;;;;;5.4;3.8;;;;;;;6.01;97.69727;938.4345;;;;
2022/11/03 06:22:44;;;;;;;7.2;3.7;;;;;;;6.1;97.08301;938.4328;;;;
2022/11/03 06:25:08;;;;;;;6.4;4;;;;;;;6.26;96.34863;938.3826;;;;
2022/11/03 06:27:38;;;;;;;6.6;4.2;;;;;;;6.34;95.95117;938.2614;;;;
2022/11/03 06:30:03;;;;;;;7.7;3.8;;;;;;;6.37;95.83398;938.2211;;;;
2022/11/03 06:32:31;;;;;;;5.8;3.8;;;;;;;6.49;95.9834;938.217;;;;
2022/11/03 06:34:56;;;;;;;5.3;3.5;;;;;;;6.48;95.74316;938.19;;;;
2022/11/03 06:37:24;;;;;;;6;3.8;;;;;;;6.59;95.72266;938.1277;;;;
2022/11/03 06:39:49;;;;;;;5.9;3.1;;;;;;;6.76;95.07031;938.216;;;;
2022/11/03 06:42:17;;;;;;;5.4;3.4;;;;;;;6.86;94.38086;938.1956;;;;
2022/11/03 06:44:42;;;;;;;5;3.7;;;;;;;6.75;94.60449;938.2324;;;;
2022/11/03 06:47:10;;;;;;;6.6;3.9;;;;;;;6.64;95.23633;938.1981;;;;
2022/11/03 06:49:35;;;;;;;7.6;4.1;;;;;;;6.82;96.0332;938.2151;;;;
2022/11/03 06:52:00;;;;;;;5.4;3.4;;;;;;;6.94;95.86914;938.1563;;;;
2022/11/03 06:54:26;;;;;;;6.1;3.5;;;;;;;7.35;94.94043;938.1428;;;;
2022/11/03 06:56:51;;;;;;;6.5;3.4;;;;;;;7.71;92.38867;937.9835;;;;
2022/11/03 06:59:16;;;;;;;5.5;2.9;;;;;;;7.56;90.78125;938.0477;;;;
2022/11/03 07:01:45;;;;;;;6.9;3.7;;;;;;;7.88;92.89063;938.0474;;;;
2022/11/03 07:04:11;;;;;;;5.7;3.1;;;;;;;8.11;88.29785;938.0424;;;;
2022/11/03 07:06:41;;;;;;;7.9;4.4;;;;;;;8.06;88.58105;937.9812;;;;
2022/11/03 07:09:11;;;;;;;9.5;4.5;;;;;;;8.37;87.97656;937.8865;;;;
2022/11/03 07:11:40;;;;;;;8.3;3.4;;;;;;;8.66;86.02148;937.8656;;;;
2022/11/03 07:14:05;;;;;;;5.9;2.9;;;;;;;8.87;85.47363;937.8628;;;;
2022/11/03 07:16:31;;;;;;;8.3;3.5;;;;;;;9.2;83.57031;937.937;;;;
2022/11/03 07:18:56;;;;;;;9.4;5.3;;;;;;;9.34;82.94629;937.905;;;;
2022/11/03 07:21:21;;;;;;;15.4;7;;;;;;;9.45;82.03418;937.8597;;;;
2022/11/03 07:23:46;;;;;;;14.2;6.4;;;;;;;9.32;83.47949;937.9706;;;;
2022/11/03 07:26:12;;;;;;;8.8;4.6;;;;;;;9.57;81.8877;937.9235;;;;
2022/11/03 07:28:41;;;;;;;9.3;4.7;;;;;;;9.67;81.56445;937.9177;;;;
2022/11/03 07:31:06;;;;;;;8.2;4.4;;;;;;;9.71;81.57031;937.8553;;;;
2022/11/03 07:33:31;;;;;;;7.4;3.8;;;;;;;9.9;81.45703;937.838;;;;
2022/11/03 07:35:59;;;;;;;8.4;3.7;;;;;;;9.82;82.12793;937.7988;;;;
2022/11/03 07:38:22;;;;;;;5.6;3.1;;;;;;;10.27;79.88574;937.7623;;;;
2022/11/03 07:40:53;;;;;;;8.5;3.9;;;;;;;10.5;78.10059;937.5847;;;;
2022/11/03 07:43:18;;;;;;;6.8;3.2;;;;;;;10.86;76.18945;937.5857;;;;
2022/11/03 07:45:43;;;;;;;3.6;2.5;;;;;;;11.25;74.79395;937.7028;;;;
2022/11/03 07:48:08;;;;;;;6.5;2.4;;;;;;;11.28;74.09082;937.6057;;;;
2022/11/03 07:50:33;;;;;;;5.2;2.2;;;;;;;11.41;73.88379;937.4437;;;;
2022/11/03 07:53:02;;;;;;;7.6;3.1;;;;;;;11.55;73.29102;937.4702;;;;
2022/11/03 07:55:27;;;;;;;3.6;2.3;;;;;;;12.04;71.89453;937.4769;;;;
2022/11/03 07:57:55;;;;;;;4.8;2.1;;;;;;;12.51;69.85059;937.4519;;;;
2022/11/03 08:00:21;;;;;;;4.2;2.5;;;;;;;13.34;69.60352;937.3278;;;;
2022/11/03 08:02:46;;;;;;;5.4;2.3;;;;;;;13.85;64.06152;937.3043;;;;
2022/11/03 08:05:16;;;;;;;4.3;2.3;;;;;;;13.72;64.55859;937.267;;;;
2022/11/03 08:07:46;;;;;;;4.3;2.2;;;;;;;14.66;61.22852;937.1347;;;;
2022/11/03 08:10:12;;;;;;;4.2;3;;;;;;;14.79;60.92383;937.1064;;;;
2022/11/03 08:12:40;;;;;;;5.7;2.9;;;;;;;14.75;61.25293;937.0442;;;;
2022/11/03 08:15:06;;;;;;;4;2.3;;;;;;;14.78;60.33398;936.9895;;;;
2022/11/03 08:17:30;;;;;;;4.6;2.3;;;;;;;15.96;59.19141;936.923;;;;
2022/11/03 08:19:57;;;;;;;5.1;2.4;;;;;;;17.18;54.2666;936.8769;;;;
2022/11/03 08:22:24;;;;;;;3.7;3;;;;;;;16.76;54.875;936.8724;;;;
2022/11/03 08:26:04;;;;;;;4.7;2.8;;;;;;;16.16;56.67383;936.7864;;;;
2022/11/03 08:28:31;;;;;;;6.3;2.4;;;;;;;15.34;59.92676;936.6534;;;;
2022/11/03 08:31:00;;;;;;;6.5;3.1;;;;;;;14.56;61.84863;936.6897;;;;
2022/11/03 08:33:21;;;;;;;5.4;2.8;;;;;;;13.94;64.97266;936.6866;;;;
2022/11/03 08:35:47;;;;;;;6.1;3.7;;;;;;;13.38;67.79688;936.5463;;;;
2022/11/03 08:39:43;;;;;;;3.7;2.7;;;;;;;13.12;68.60449;936.5338;;;;
2022/11/03 08:42:06;;;;;;;4.9;2.5;;;;;;;12.59;69.7832;936.5189;;;;
2022/11/03 08:44:34;;;;;;;6.4;3.3;;;;;;;12.44;71.57227;936.4584;;;;
2022/11/03 08:46:59;;;;;;;2.9;2.3;;;;;;;12.52;71.65332;936.4408;;;;
2022/11/03 08:49:25;;;;;;;7.6;3.1;;;;;;;12.66;72.29492;936.3298;;;;
2022/11/03 08:51:50;;;;;;;5.3;2.6;;;;;;;12.63;70.9248;936.3873;;;;
2022/11/03 08:54:22;;;;;;;7.8;2.5;;;;;;;12.61;71.19922;936.3275;;;;
2022/11/03 08:56:52;;;;;;;10.7;3.2;;;;;;;12.61;71.26465;936.2897;;;;
2022/11/03 08:59:18;;;;;;;7.1;3.2;;;;;;;12.65;71.22656;936.2491;;;;
2022/11/03 09:01:46;;;;;;;4.9;2.6;;;;;;;12.9;70.30371;936.1937;;;;
2022/11/03 09:04:11;;;;;;;3.9;2.3;;;;;;;12.91;68.70898;936.1513;;;;
2022/11/03 09:06:40;;;;;;;6.4;2.5;;;;;;;13.2;68.83496;936.0917;;;;
2022/11/03 09:09:03;;;;;;;12.7;3;;;;;;;13.31;68.0957;936.1115;;;;
2022/11/03 09:11:30;;;;;;;4.3;2.3;;;;;;;13.32;67.94727;936.0451;;;;
2022/11/03 09:13:56;;;;;;;5.5;2.4;;;;;;;13.33;68.33789;936.0211;;;;
2022/11/03 09:16:25;;;;;;;4.6;2.3;;;;;;;13.23;69.17383;935.9112;;;;
2022/11/03 09:18:50;;;;;;;4.1;2.6;;;;;;;12.93;69.60938;935.9978;;;;
2022/11/03 09:21:17;;;;;;;6.2;2.4;;;;;;;13.04;70.12988;935.9698;;;;
2022/11/03 09:23:42;;;;;;;3.2;2.2;;;;;;;12.89;69.30469;935.9277;;;;
2022/11/03 09:26:08;;;;;;;4.4;2.2;;;;;;;12.85;70.06543;935.8439;;;;
2022/11/03 09:28:33;;;;;;;5.2;2.6;;;;;;;12.74;70.10645;935.8734;;;;
2022/11/03 09:30:59;;;;;;;5.2;2.7;;;;;;;13.03;69.38379;935.877;;;;
2022/11/03 09:33:24;;;;;;;6.3;2.5;;;;;;;13.65;67.76855;935.9183;;;;
2022/11/03 09:35:52;;;;;;;2.9;1.9;;;;;;;14.63;64.61328;935.9434;;;;
2022/11/03 09:38:17;;;;;;;3.8;1.9;;;;;;;15.36;62.37695;935.7941;;;;
2022/11/03 09:40:44;;;;;;;4.5;2.1;;;;;;;15.92;58.94238;935.7906;;;;
2022/11/03 09:43:10;;;;;;;4.7;2.2;;;;;;;16.46;56.9668;935.7859;;;;
2022/11/03 09:45:37;;;;;;;6.1;2.4;;;;;;;16.87;55.44531;935.7416;;;;
2022/11/03 09:48:02;;;;;;;5.1;2.2;;;;;;;17.11;55.05762;935.6786;;;;
2022/11/03 09:50:29;;;;;;;4.7;2;;;;;;;17.14;53.66992;935.678;;;;
2022/11/03 09:52:54;;;;;;;4.6;1.8;;;;;;;16.84;54.75684;935.6594;;;;
2022/11/03 09:55:19;;;;;;;3.6;1.7;;;;;;;16.73;54.21094;935.6008;;;;
2022/11/03 09:57:44;;;;;;;2.4;1.3;;;;;;;16.59;52.39941;935.5369;;;;
2022/11/03 10:00:09;;;;;;;4.3;1.8;;;;;;;16.74;53.7373;935.5267;;;;
2022/11/03 10:02:42;;;;;;;4.7;1.6;;;;;;;17.11;53.79395;935.4903;;;;
2022/11/03 10:05:11;;;;;;;3.8;1.6;;;;;;;17.44;52.15332;935.4155;;;;
2022/11/03 10:07:40;;;;;;;2.2;1.3;;;;;;;17.93;49.2959;935.4063;;;;
2022/11/03 10:10:05;;;;;;;2.8;1.7;;;;;;;17.83;49.98047;935.35;;;;
2022/11/03 10:12:35;;;;;;;3;1.8;;;;;;;17.62;49.65625;935.287;;;;
2022/11/03 10:15:00;;;;;;;3.6;1.3;;;;;;;17.69;50.84863;935.2335;;;;
2022/11/03 10:17:26;;;;;;;2.5;1.4;;;;;;;17.61;51.10547;935.2058;;;;
2022/11/03 10:19:55;;;;;;;3.5;1.7;;;;;;;17.41;51.45313;935.09;;;;
2022/11/03 10:22:23;;;;;;;3.4;1.6;;;;;;;17.56;51.72656;935.0355;;;;
2022/11/03 10:24:48;;;;;;;3.7;1.8;;;;;;;17.73;52.05859;935.0128;;;;
2022/11/03 10:27:14;;;;;;;3.2;1.7;;;;;;;17.7;52.52051;934.9442;;;;
2022/11/03 10:29:43;;;;;;;4;1.6;;;;;;;17.62;51.59473;934.808;;;;
2022/11/03 10:32:08;;;;;;;4.1;1.7;;;;;;;17.74;49.86719;934.7427;;;;
2022/11/03 10:34:36;;;;;;;3;1.8;;;;;;;17.94;50.30762;934.7399;;;;
2022/11/03 10:37:01;;;;;;;3.5;1.8;;;;;;;18.02;48.14453;934.7364;;;;
2022/11/03 10:39:26;;;;;;;2.8;1.6;;;;;;;18.08;49.12695;934.6834;;;;
2022/11/03 10:41:56;;;;;;;3.3;1.8;;;;;;;18.2;52.2666;934.5974;;;;
2022/11/03 10:44:21;;;;;;;4;1.6;;;;;;;18.33;54.49121;934.6241;;;;
2022/11/03 10:46:46;;;;;;;3.9;1.5;;;;;;;18.35;51.44629;934.61;;;;
2022/11/03 10:49:17;;;;;;;2.2;1.6;;;;;;;18.58;49.35742;934.5105;;;;
2022/11/03 10:51:41;;;;;;;3.3;1.7;;;;;;;18.68;46.33301;934.4945;;;;
2022/11/03 10:54:06;;;;;;;3.9;1.7;;;;;;;18.89;46.37793;934.4551;;;;
2022/11/03 10:56:36;;;;;;;3.3;1.4;;;;;;;19.21;46.66797;934.4573;;;;
2022/11/03 10:59:01;;;;;;;2.2;1.4;;;;;;;19.49;46.65137;934.4091;;;;
2022/11/03 11:01:31;;;;;;;3.2;1.7;;;;;;;19.74;43.24902;934.3735;;;;
2022/11/03 11:03:56;;;;;;;2.5;1.9;;;;;;;19.82;42.7666;934.3524;;;;
2022/11/03 11:06:24;;;;;;;4.9;1.4;;;;;;;19.67;42.56641;934.3289;;;;
2022/11/03 11:08:49;;;;;;;2.9;1.3;;;;;;;19.86;43.59863;934.2802;;;;
2022/11/03 11:11:14;;;;;;;2.9;1.7;;;;;;;19.95;42.55859;934.265;;;;
2022/11/03 11:13:40;;;;;;;2.3;1.2;;;;;;;20.19;40.83008;934.2355;;;;
2022/11/03 11:16:11;;;;;;;3.7;1.7;;;;;;;20.58;41.00684;934.1889;;;;
2022/11/03 11:18:37;;;;;;;2.2;1.5;;;;;;;20.98;40.90332;934.1102;;;;
2022/11/03 11:21:02;;;;;;;2.3;1.4;;;;;;;21.31;38.08984;934.0606;;;;
2022/11/03 11:23:27;;;;;;;1.8;1.4;;;;;;;21.42;37.60742;934.1017;;;;
2022/11/03 11:25:53;;;;;;;1.9;1.1;;;;;;;21.64;35.95215;934.0351;;;;
2022/11/03 11:28:22;;;;;;;4.1;1.9;;;;;;;21.85;35.53516;934.0779;;;;
2022/11/03 11:30:47;;;;;;;1.8;1.2;;;;;;;22.03;35.5498;934.0895;;;;
2022/11/03 11:33:15;;;;;;;2.9;1.3;;;;;;;22.07;33.59473;934.0308;;;;
2022/11/03 11:35:40;;;;;;;2.8;1.4;;;;;;;23.23;33.89453;933.998;;;;
2022/11/03 11:38:11;;;;;;;3.1;1.2;;;;;;;24.58;31.15625;933.9611;;;;
2022/11/03 11:40:36;;;;;;;2.2;1.2;;;;;;;24.54;39.14551;933.9678;;;;
2022/11/03 11:43:05;;;;;;;4.9;1.8;;;;;;;24.73;40.97852;933.9928;;;;
2022/11/03 11:45:35;;;;;;;3;2.1;;;;;;;24.03;42.02148;933.9504;;;;
2022/11/03 11:48:00;;;;;;;3;1.7;;;;;;;24.27;42.03223;933.8752;;;;
2022/11/03 11:50:26;;;;;;;3.3;2;;;;;;;25.25;40.11719;933.7917;;;;
2022/11/03 11:52:54;;;;;;;3.5;1.7;;;;;;;26.54;36.32617;933.8176;;;;
2022/11/03 11:55:19;;;;;;;3.8;1.8;;;;;;;27.09;35.97949;933.8569;;;;
2022/11/03 11:57:46;;;;;;;3;1.7;;;;;;;28.26;33.5293;933.8588;;;;
2022/11/03 12:00:17;;;;;;;3.9;1.7;;;;;;;29.78;31.31641;933.8741;;;;
2022/11/03 12:02:42;;;;;;;3.9;1.6;;;;;;;30.96;29.19824;933.8005;;;;
2022/11/03 12:05:08;;;;;;;4.8;1.7;;;;;;;31.07;28.83496;933.7651;;;;
2022/11/03 12:07:33;;;;;;;4;1.7;;;;;;;30.65;29.17871;933.7933;;;;
2022/11/03 12:10:01;;;;;;;3.4;2;;;;;;;30.39;28.9707;933.7712;;;;
2022/11/03 12:12:26;;;;;;;3.8;1.8;;;;;;;31.3;27.4375;933.7556;;;;
2022/11/03 12:14:57;;;;;;;3.2;1.7;;;;;;;31.44;27.81738;933.6799;;;;
2022/11/03 12:17:24;;;;;;;2.7;1.6;;;;;;;31.16;27.69238;933.6609;;;;
2022/11/03 12:19:52;;;;;;;2.8;1.5;;;;;;;29.96;30.39844;933.6447;;;;
2022/11/03 12:22:17;;;;;;;4.4;1.5;;;;;;;29.67;30.60645;933.7198;;;;
2022/11/03 12:24:42;;;;;;;3.7;1.8;;;;;;;30.46;29.38086;933.6386;;;;
2022/11/03 12:27:15;;;;;;;2.1;1.4;;;;;;;30.42;29.02051;933.6003;;;;
2022/11/03 12:29:40;;;;;;;2.9;1.7;;;;;;;29.65;30.01953;933.5701;;;;
2022/11/03 12:32:07;;;;;;;4;1.5;;;;;;;29.28;30.99609;933.5938;;;;
2022/11/03 12:34:32;;;;;;;2.7;1.6;;;;;;;30.03;29.44824;933.5595;;;;
2022/11/03 12:37:01;;;;;;;3.1;1.4;;;;;;;29.28;30.25781;933.498;;;;
2022/11/03 12:39:30;;;;;;;3.8;1.8;;;;;;;28.79;30.90332;933.4889;;;;
2022/11/03 12:41:55;;;;;;;2.6;1.5;;;;;;;27.5;32.86719;933.445;;;;
2022/11/03 12:44:23;;;;;;;2.6;1.8;;;;;;;26.22;35.05762;933.4322;;;;
2022/11/03 12:46:49;;;;;;;5.2;1.7;;;;;;;25.02;37.19434;933.3089;;;;
2022/11/03 12:49:16;;;;;;;2.7;1.6;;;;;;;23.62;39.84082;933.3658;;;;
2022/11/03 12:51:42;;;;;;;3.7;1.7;;;;;;;22.81;41.76563;933.2827;;;;
2022/11/03 12:54:11;;;;;;;3.4;1.9;;;;;;;21.99;44.10254;933.1916;;;;
2022/11/03 12:56:36;;;;;;;4.2;2;;;;;;;21.24;46.00488;933.0914;;;;
2022/11/03 12:59:02;;;;;;;2.7;1.7;;;;;;;20.6;47.27051;933.1704;;;;
2022/11/03 13:01:31;;;;;;;1.9;1.5;;;;;;;20.05;48.72852;933.1813;;;;
2022/11/03 13:03:55;;;;;;;2.6;1.9;;;;;;;19.65;50.34082;933.1389;;;;
2022/11/03 13:06:21;;;;;;;4.2;1.7;;;;;;;19.28;52.0459;933.113;;;;
2022/11/03 13:08:49;;;;;;;2.8;1.7;;;;;;;19;52.81445;933.1714;;;;
2022/11/03 13:13:41;;;;;;;3.3;1.9;;;;;;;18.68;54.44043;933.1711;;;;
2022/11/03 13:16:07;;;;;;;3.9;1.9;;;;;;;18.63;54.59766;933.1299;;;;
2022/11/03 13:18:35;;;;;;;2;1.5;;;;;;;18.37;55.23926;933.0552;;;;
2022/11/03 13:21:38;;;;;;;4.5;2.5;;;;;;;18.25;56.11914;933.0159;;;;
2022/11/03 13:24:07;;;;;;;3.2;2.2;;;;;;;18.22;56.61621;932.9142;;;;
2022/11/03 13:26:32;;;;;;;3.2;2.3;;;;;;;18.4;55.92969;932.9985;;;;
2022/11/03 13:29:00;;;;;;;4.5;2.5;;;;;;;17.71;57.78027;932.9558;;;;
2022/11/03 13:31:25;;;;;;;3.5;2;;;;;;;17.82;57.84082;932.9311;;;;
2022/11/03 13:33:51;;;;;;;4.2;2.2;;;;;;;17.82;57.66699;932.8901;;;;
2022/11/03 13:36:15;;;;;;;2.7;1.8;;;;;;;18.04;57.52051;932.8297;;;;
2022/11/03 13:38:46;;;;;;;4.7;2;;;;;;;18.34;56.52539;932.7844;;;;
2022/11/03 13:41:11;;;;;;;3.1;2;;;;;;;18.82;55.34277;932.6814;;;;
2022/11/03 13:43:40;;;;;;;4.8;2.1;;;;;;;19.06;54.19727;932.6831;;;;
2022/11/03 13:47:42;;;;;;;4.2;2.2;;;;;;;19.2;54.27246;932.6116;;;;
2022/11/03 13:49:52;;;;;;;4;2.1;;;;;;;19.51;53.0166;932.5542;;;;
2022/11/03 13:52:17;;;;;;;5.3;2;;;;;;;19.62;52.55176;932.5605;;;;
2022/11/03 13:54:47;;;;;;;3.5;1.8;;;;;;;19.28;53.69824;932.56;;;;
2022/11/03 13:57:18;;;;;;;4;2.2;;;;;;;19.3;53.14258;932.4397;;;;
2022/11/03 13:59:44;;;;;;;3.3;1.8;;;;;;;19.23;53.4502;932.4582;;;;
2022/11/03 14:02:09;;;;;;;4.2;2.1;;;;;;;18.95;54.26563;932.5136;;;;
2022/11/03 14:04:38;;;;;;;3.2;1.8;;;;;;;18.71;54.82813;932.6089;;;;
2022/11/03 14:07:07;;;;;;;3.8;2.2;;;;;;;18.63;55.2959;932.5613;;;;
2022/11/03 14:09:35;;;;;;;3.8;2.3;;;;;;;18.27;56.58594;932.5294;;;;
2022/11/03 14:14:28;;;;;;;4.3;2.4;;;;;;;17.81;58.39551;932.6423;;;;
2022/11/03 14:16:56;;;;;;;3;1.8;;;;;;;17.69;58.69336;932.6802;;;;
2022/11/03 14:23:07;;;;;;;4.4;2.3;;;;;;;17.06;60.88086;932.515;;;;
2022/11/03 14:25:32;;;;;;;3.6;2.3;;;;;;;16.86;62.02441;932.4959;;;;
2022/11/03 14:28:02;;;;;;;4.9;2.6;;;;;;;16.59;62.03223;932.4558;;;;
2022/11/03 14:30:32;;;;;;;3.9;2.1;;;;;;;16.2;65.46973;932.3811;;;;
2022/11/03 14:33:04;;;;;;;5.2;2.6;;;;;;;16.29;64.66113;932.3063;;;;
2022/11/03 14:35:34;;;;;;;5.5;2.3;;;;;;;16.3;63.28613;932.2282;;;;
2022/11/03 14:37:59;;;;;;;5.5;2.3;;;;;;;16.3;63.14844;932.1478;;;;
2022/11/03 14:42:52;;;;;;;4.3;2.5;;;;;;;16.31;63.28906;932.1097;;;;
2022/11/03 14:45:20;;;;;;;4.6;2.6;;;;;;;16.23;63.28809;932.098;;;;
2022/11/03 14:47:46;;;;;;;4.2;2.4;;;;;;;16.14;63.95801;932.0144;;;;
2022/11/03 14:50:18;;;;;;;4;2.6;;;;;;;16.02;64.19531;932.0829;;;;
2022/11/03 14:58:18;;;;;;;4.1;2.7;;;;;;;15.84;64.42188;931.9034;;;;
2022/11/03 15:00:43;;;;;;;4.6;2.6;;;;;;;15.77;64.78027;931.9224;;;;
2022/11/03 15:03:15;;;;;;;5.7;2.5;;;;;;;15.72;65.15527;931.9619;;;;
2022/11/03 15:05:46;;;;;;;5;2.6;;;;;;;15.62;65.37109;932.0754;;;;
2022/11/03 15:08:08;;;;;;;6.1;2.5;;;;;;;15.56;65.35059;932.027;;;;
2022/11/03 15:10:36;;;;;;;5.7;2.8;;;;;;;15.47;65.93848;932.0488;;;;
2022/11/03 15:13:07;;;;;;;5.2;2.9;;;;;;;15.49;66.02246;931.9161;;;;
2022/11/03 15:15:34;;;;;;;3.4;2.7;;;;;;;15.54;65.96094;931.8259;;;;
2022/11/03 15:17:57;;;;;;;6.1;2.7;;;;;;;15.55;65.89355;931.7752;;;;
2022/11/03 15:20:23;;;;;;;4.2;2.6;;;;;;;15.54;66.05371;931.757;;;;
2022/11/03 15:22:48;;;;;;;4.2;2.4;;;;;;;15.55;66.02051;931.7198;;;;
2022/11/03 15:25:16;;;;;;;4.7;2.7;;;;;;;15.54;66.27344;931.7497;;;;
2022/11/03 15:27:41;;;;;;;4.4;2.9;;;;;;;15.51;66.48828;931.7912;;;;
2022/11/03 15:30:10;;;;;;;4.8;2.9;;;;;;;15.45;66.75488;931.6833;;;;
2022/11/03 15:32:40;;;;;;;3.7;2.6;;;;;;;15.35;67.40918;931.4989;;;;
2022/11/03 15:35:05;;;;;;;4.2;2.7;;;;;;;15.3;67.5625;931.3884;;;;
2022/11/03 15:37:36;;;;;;;4;2.4;;;;;;;15.24;67.84277;931.3014;;;;
2022/11/03 15:40:01;;;;;;;3.7;2.7;;;;;;;15.19;68.05469;931.2147;;;;
2022/11/03 15:42:26;;;;;;;4.4;2.9;;;;;;;15.14;67.9668;931.1667;;;;
2022/11/03 15:44:58;;;;;;;3.8;2.6;;;;;;;15.1;68.20215;931.2043;;;;
2022/11/03 15:47:23;;;;;;;4.6;2.8;;;;;;;15.06;68.50684;931.1531;;;;
2022/11/03 15:49:48;;;;;;;4.7;2.8;;;;;;;15;68.78516;931.1426;;;;
2022/11/03 15:52:15;;;;;;;5.1;2.8;;;;;;;14.97;68.9541;931.1127;;;;
2022/11/03 15:54:59;;;;;;;4.8;2.7;;;;;;;14.94;69.00684;931.0595;;;;
2022/11/03 15:57:24;;;;;;;6;2.8;;;;;;;14.86;69.40918;930.936;;;;
2022/11/03 15:59:49;;;;;;;8.1;5;;;;;;;14.8;70.3916;930.8152;;;;
2022/11/03 16:02:16;;;;;;;5;3.1;;;;;;;14.68;70.79883;930.8093;;;;
2022/11/03 16:04:41;;;;;;;3.7;2.5;;;;;;;14.54;71.2373;930.7795;;;;
2022/11/03 16:07:11;;;;;;;7.6;3.7;;;;;;;14.49;71.32129;930.6209;;;;
2022/11/03 16:09:36;;;;;;;8;4.5;;;;;;;14.48;71.66504;930.686;;;;
2022/11/03 16:12:05;;;;;;;6.8;3.1;;;;;;;14.36;72.27832;930.7957;;;;
2022/11/03 16:14:35;;;;;;;3.9;2.3;;;;;;;14.26;72.58398;930.7941;;;;